Time;durP1;ratioP1;P1;durP2;ratioP2;P2;SDS_P1;SDS_P2;PMS_P1;PMS_P2;Temp;Humidity;BMP_temperature;BMP_pressure;BME280_temperature;BME280_humidity;BME280_pressure;Samples;Min_cycle;Max_cycle;Signal;HPM_P1;HPM_P2
2023/05/06 00:00:38;;;;;;;2.87;1.60;;;;;;;12.50;100.00;100533.63;5041971;28;20199;-77
2023/05/06 00:03:05;;;;;;;2.37;1.60;;;;;;;12.39;100.00;100524.66;5037189;28;20220;-77
2023/05/06 00:05:31;;;;;;;3.37;2.00;;;;;;;12.49;100.00;100526.56;5036031;28;20210;-77
2023/05/06 00:07:57;;;;;;;2.30;1.77;;;;;;;12.39;100.00;100523.78;5041196;28;20207;-77
2023/05/06 00:10:24;;;;;;;2.37;1.83;;;;;;;12.21;100.00;100522.75;5039606;28;20251;-77
2023/05/06 00:12:51;;;;;;;3.60;1.73;;;;;;;12.23;100.00;100518.34;5035984;28;20234;-77
2023/05/06 00:15:17;;;;;;;3.17;2.10;;;;;;;12.16;100.00;100512.97;5042265;28;20206;-77
2023/05/06 00:17:44;;;;;;;2.33;1.80;;;;;;;12.04;100.00;100513.78;5041534;28;20229;-78
2023/05/06 00:20:10;;;;;;;3.23;2.00;;;;;;;11.92;100.00;100506.56;5040137;28;20197;-77
2023/05/06 00:22:37;;;;;;;3.67;2.00;;;;;;;12.01;100.00;100502.19;5043919;28;20657;-79
2023/05/06 00:25:04;;;;;;;2.73;2.10;;;;;;;11.95;100.00;100503.03;5044404;28;20195;-79
2023/05/06 00:27:30;;;;;;;4.17;3.20;;;;;;;11.74;100.00;100500.16;5043263;28;20626;-78
2023/05/06 00:29:57;;;;;;;2.30;1.90;;;;;;;11.79;100.00;100498.47;5038598;28;20294;-81
2023/05/06 00:32:23;;;;;;;3.80;2.30;;;;;;;11.71;100.00;100503.66;5043825;28;20230;-80
2023/05/06 00:34:49;;;;;;;4.23;2.30;;;;;;;11.69;100.00;100505.41;5042692;28;20734;-80
2023/05/06 00:37:16;;;;;;;3.67;2.07;;;;;;;11.65;100.00;100514.22;5041020;28;20661;-81
2023/05/06 00:39:42;;;;;;;2.97;2.13;;;;;;;11.82;100.00;100511.78;5055606;28;20191;-81
2023/05/06 00:42:09;;;;;;;4.27;2.10;;;;;;;11.66;100.00;100513.34;5047277;28;20205;-83
2023/05/06 00:44:35;;;;;;;3.37;2.33;;;;;;;11.60;100.00;100510.59;5043139;28;20232;-85
2023/05/06 00:47:01;;;;;;;1.97;1.77;;;;;;;11.45;100.00;100510.44;5042667;28;20252;-85
2023/05/06 00:49:29;;;;;;;2.77;2.03;;;;;;;11.37;100.00;100512.13;5039002;28;20732;-84
2023/05/06 00:51:56;;;;;;;5.73;2.40;;;;;;;11.42;100.00;100502.44;5041084;28;20660;-85
2023/05/06 00:54:26;;;;;;;5.73;2.43;;;;;;;11.47;100.00;100506.94;5039864;28;20221;-85
2023/05/06 00:56:53;;;;;;;3.13;2.00;;;;;;;11.32;100.00;100498.81;5034902;28;20197;-85
2023/05/06 00:59:20;;;;;;;3.90;1.83;;;;;;;11.18;100.00;100501.25;5043358;28;20202;-87
2023/05/06 01:01:46;;;;;;;2.83;2.20;;;;;;;11.21;100.00;100500.44;5042981;28;20202;-84
2023/05/06 01:04:13;;;;;;;3.20;1.90;;;;;;;11.09;100.00;100498.50;5036777;28;20313;-86
2023/05/06 01:06:54;;;;;;;3.30;1.97;;;;;;;11.14;100.00;100495.91;5043294;28;20618;-86
2023/05/06 01:09:32;;;;;;;4.83;1.77;;;;;;;11.12;100.00;100497.66;5042948;28;20707;-84
2023/05/06 01:12:08;;;;;;;2.97;1.97;;;;;;;11.12;100.00;100497.66;5050294;28;20195;-86
2023/05/06 01:14:45;;;;;;;2.47;1.80;;;;;;;10.97;100.00;100498.34;5038416;28;20317;-87
2023/05/06 01:17:16;;;;;;;2.50;2.10;;;;;;;10.88;100.00;100500.88;5041883;28;20744;-86
2023/05/06 01:19:52;;;;;;;3.80;2.07;;;;;;;10.85;100.00;100498.19;5047720;28;20281;-85
2023/05/06 01:22:18;;;;;;;2.30;2.07;;;;;;;10.70;100.00;100496.19;5039874;28;22841;-82
2023/05/06 01:24:45;;;;;;;1.90;1.80;;;;;;;10.69;100.00;100486.47;5037690;28;20222;-84
2023/05/06 01:27:13;;;;;;;4.40;2.00;;;;;;;10.65;100.00;100489.94;5041491;28;20233;-84
2023/05/06 01:29:41;;;;;;;2.43;2.00;;;;;;;10.60;100.00;100489.00;5046628;28;20291;-85
2023/05/06 01:32:34;;;;;;;2.63;2.10;;;;;;;10.56;100.00;100492.47;5042935;28;20202;-84
2023/05/06 01:35:27;;;;;;;4.17;1.90;;;;;;;10.59;100.00;100488.09;5035272;28;20228;-79
2023/05/06 01:38:13;;;;;;;3.20;1.90;;;;;;;10.56;100.00;100485.41;5045939;28;20673;-81
2023/05/06 01:40:41;;;;;;;2.57;2.00;;;;;;;10.71;100.00;100489.13;5041960;28;20201;-82
2023/05/06 01:43:09;;;;;;;4.30;2.40;;;;;;;10.83;100.00;100490.22;5045984;28;20218;-82
2023/05/06 01:45:37;;;;;;;3.93;1.90;;;;;;;10.90;100.00;100502.69;5050273;28;20198;-80
2023/05/06 01:48:04;;;;;;;2.97;2.17;;;;;;;10.75;100.00;100506.84;5048455;28;20248;-80
2023/05/06 01:50:32;;;;;;;3.43;2.10;;;;;;;10.71;100.00;100515.63;5047159;28;20622;-78
2023/05/06 01:53:00;;;;;;;3.10;2.30;;;;;;;10.65;100.00;100511.13;5041983;28;20283;-80
2023/05/06 01:55:26;;;;;;;3.67;2.37;;;;;;;10.66;100.00;100505.84;5047717;28;20205;-78
2023/05/06 01:57:54;;;;;;;4.90;2.30;;;;;;;10.58;100.00;100507.50;5043330;28;20194;-77
2023/05/06 02:00:20;;;;;;;5.20;2.70;;;;;;;10.52;100.00;100518.00;5042795;28;20198;-77
2023/05/06 02:02:46;;;;;;;5.10;2.17;;;;;;;10.47;100.00;100517.06;5043360;28;20197;-77
2023/05/06 02:05:13;;;;;;;2.97;2.20;;;;;;;10.32;100.00;100516.78;5047916;28;20581;-78
2023/05/06 02:07:39;;;;;;;5.17;2.60;;;;;;;10.32;100.00;100524.72;5040897;28;20264;-79
2023/05/06 02:10:07;;;;;;;4.80;2.80;;;;;;;10.43;100.00;100517.88;5044483;28;20225;-80
2023/05/06 02:12:34;;;;;;;3.40;2.60;;;;;;;10.58;100.00;100514.56;5042268;28;20657;-79
2023/05/06 02:15:00;;;;;;;7.23;2.50;;;;;;;10.57;100.00;100516.31;5044490;28;20242;-79
2023/05/06 02:17:26;;;;;;;3.20;2.27;;;;;;;10.42;100.00;100525.78;5040158;28;20229;-76
2023/05/06 02:19:53;;;;;;;5.27;2.80;;;;;;;10.31;100.00;100529.13;5039644;28;20199;-76
2023/05/06 02:22:19;;;;;;;3.33;2.80;;;;;;;10.27;100.00;100532.59;5050139;28;20204;-76
2023/05/06 02:24:45;;;;;;;3.40;2.67;;;;;;;10.13;100.00;100526.16;5041751;28;20230;-76
2023/05/06 02:27:12;;;;;;;5.03;3.00;;;;;;;10.17;100.00;100527.09;5043120;28;20680;-76
2023/05/06 02:29:38;;;;;;;4.50;2.57;;;;;;;10.11;100.00;100527.00;5041744;28;20414;-76
2023/05/06 02:32:05;;;;;;;3.93;2.77;;;;;;;10.01;100.00;100529.47;5045783;28;20205;-77
2023/05/06 02:34:32;;;;;;;4.33;2.60;;;;;;;9.95;100.00;100532.00;5042352;28;20246;-76
2023/05/06 02:36:58;;;;;;;4.43;2.40;;;;;;;9.89;100.00;100531.00;5044507;28;20205;-76
2023/05/06 02:39:25;;;;;;;3.70;2.67;;;;;;;9.89;100.00;100529.25;5044577;28;20498;-77
2023/05/06 02:41:51;;;;;;;6.47;2.70;;;;;;;9.98;100.00;100526.75;5043932;28;20195;-76
2023/05/06 02:44:17;;;;;;;4.97;2.80;;;;;;;10.01;100.00;100531.22;5037264;28;20308;-76
2023/05/06 02:46:44;;;;;;;3.20;2.67;;;;;;;9.95;100.00;100537.28;5036655;28;20240;-76
2023/05/06 02:49:10;;;;;;;4.13;2.90;;;;;;;10.05;100.00;100538.38;5042933;28;20201;-76
2023/05/06 02:51:37;;;;;;;4.03;3.00;;;;;;;9.95;100.00;100529.34;5041374;28;20221;-76
2023/05/06 02:54:03;;;;;;;4.80;2.73;;;;;;;9.98;100.00;100541.72;5041580;28;20251;-77
2023/05/06 02:56:30;;;;;;;5.57;3.07;;;;;;;10.02;100.00;100536.56;5042616;28;20196;-76
2023/05/06 02:58:56;;;;;;;4.13;3.00;;;;;;;9.94;100.00;100538.13;5038772;28;20669;-76
2023/05/06 03:01:23;;;;;;;6.43;2.93;;;;;;;9.89;100.00;100525.69;5042704;28;20223;-76
2023/05/06 03:03:49;;;;;;;3.93;2.90;;;;;;;9.98;100.00;100523.22;5047025;28;20214;-76
2023/05/06 03:06:16;;;;;;;7.03;2.90;;;;;;;9.99;100.00;100533.81;5038561;28;20282;-76
2023/05/06 03:08:42;;;;;;;4.30;2.90;;;;;;;10.09;100.00;100528.72;5045224;28;20204;-76
2023/05/06 03:11:08;;;;;;;3.67;2.80;;;;;;;10.11;100.00;100527.88;5044371;28;20225;-76
2023/05/06 03:13:35;;;;;;;4.70;3.30;;;;;;;9.96;100.00;100527.59;5032859;28;20222;-76
2023/05/06 03:16:01;;;;;;;6.60;3.20;;;;;;;9.92;100.00;100529.28;5045082;28;20198;-76
2023/05/06 03:18:28;;;;;;;4.20;3.20;;;;;;;9.76;100.00;100519.31;5046634;28;20237;-76
2023/05/06 03:20:54;;;;;;;7.03;3.10;;;;;;;9.80;100.00;100526.44;5045437;28;20187;-76
2023/05/06 03:23:20;;;;;;;4.70;3.07;;;;;;;9.77;100.00;100525.47;5046385;28;20220;-75
2023/05/06 03:25:47;;;;;;;4.30;3.30;;;;;;;9.62;100.00;100519.06;5058691;28;20255;-75
2023/05/06 03:28:13;;;;;;;6.93;3.33;;;;;;;9.50;100.00;100526.72;5042156;28;20227;-76
2023/05/06 03:30:39;;;;;;;5.97;3.20;;;;;;;9.48;100.00;100536.38;5062875;28;20223;-76
2023/05/06 03:33:06;;;;;;;4.80;3.07;;;;;;;9.52;100.00;100537.31;5042010;28;20703;-76
2023/05/06 03:35:32;;;;;;;4.93;3.20;;;;;;;9.58;100.00;100538.34;5043005;28;20212;-77
2023/05/06 03:37:59;;;;;;;5.33;3.27;;;;;;;9.53;100.00;100534.72;5043010;28;20270;-76
2023/05/06 03:40:25;;;;;;;5.13;3.20;;;;;;;9.41;100.00;100534.47;5040508;28;20207;-76
2023/05/06 03:42:52;;;;;;;3.77;3.13;;;;;;;9.29;100.00;100534.22;5046162;28;20220;-76
2023/05/06 03:45:18;;;;;;;4.63;3.53;;;;;;;9.24;100.00;100541.19;5057928;28;20569;-75
2023/05/06 03:47:44;;;;;;;5.67;3.80;;;;;;;9.36;100.00;100536.13;5050944;28;20320;-76
2023/05/06 03:50:11;;;;;;;5.63;3.77;;;;;;;9.34;100.00;100535.22;5046804;28;20272;-77
2023/05/06 03:52:38;;;;;;;5.60;3.37;;;;;;;9.41;100.00;100537.13;5047964;28;20199;-76
2023/05/06 03:55:05;;;;;;;4.50;3.23;;;;;;;9.38;100.00;100529.13;5040181;28;20202;-76
2023/05/06 03:57:31;;;;;;;5.27;3.73;;;;;;;9.48;100.00;100533.72;5034302;28;20253;-76
2023/05/06 03:59:57;;;;;;;5.83;3.80;;;;;;;9.54;100.00;100533.84;5042881;28;20683;-76
2023/05/06 04:02:24;;;;;;;5.07;4.03;;;;;;;9.61;100.00;100537.53;5057232;28;20194;-76
2023/05/06 04:04:51;;;;;;;4.87;3.77;;;;;;;9.56;100.00;100536.53;5044466;28;20239;-75
2023/05/06 04:07:17;;;;;;;6.10;4.07;;;;;;;9.49;100.00;100527.59;5018426;28;20287;-75
2023/05/06 04:09:43;;;;;;;6.03;4.07;;;;;;;9.43;100.00;100536.28;5048857;28;20195;-74
2023/05/06 04:12:10;;;;;;;6.13;3.90;;;;;;;9.34;100.00;100536.09;5037899;28;20268;-76
2023/05/06 04:14:36;;;;;;;5.20;3.90;;;;;;;9.26;100.00;100540.34;5034448;28;20273;-76
2023/05/06 04:17:02;;;;;;;5.83;3.80;;;;;;;9.21;100.00;100549.03;5045363;28;20210;-76
2023/05/06 04:19:29;;;;;;;6.10;3.93;;;;;;;9.12;100.00;100547.06;5039847;28;20571;-75
2023/05/06 04:21:55;;;;;;;9.13;4.60;;;;;;;9.25;100.00;100541.22;5038518;28;20575;-76
2023/05/06 04:24:21;;;;;;;5.67;4.07;;;;;;;9.29;100.00;100536.88;5046424;28;20321;-76
2023/05/06 04:26:48;;;;;;;5.97;4.00;;;;;;;9.31;100.00;100530.75;5039132;28;20290;-76
2023/05/06 04:29:14;;;;;;;5.93;3.80;;;;;;;9.35;100.00;100544.94;5044804;28;20203;-77
2023/05/06 04:31:41;;;;;;;5.77;4.10;;;;;;;9.40;100.00;100551.19;5045047;28;20216;-76
2023/05/06 04:34:09;;;;;;;6.00;4.53;;;;;;;9.53;100.00;100544.41;5058888;23;20732;-70
2023/05/06 04:36:36;;;;;;;8.20;4.53;;;;;;;9.65;100.00;100542.91;5044810;28;20191;-71
2023/05/06 04:39:07;;;;;;;4.63;3.40;;;;;;;9.84;100.00;100546.78;5040806;28;20209;-71
2023/05/06 04:41:33;;;;;;;4.53;3.60;;;;;;;10.00;100.00;100553.22;5026570;28;20618;-70
2023/05/06 04:44:00;;;;;;;5.67;4.00;;;;;;;10.25;100.00;100558.16;5038337;28;20215;-70
2023/05/06 04:46:26;;;;;;;5.90;3.90;;;;;;;10.52;100.00;100551.53;5042120;28;20232;-70
2023/05/06 04:48:53;;;;;;;6.17;3.93;;;;;;;10.81;100.00;100554.66;5037048;28;20248;-70
2023/05/06 04:51:20;;;;;;;6.23;4.10;;;;;;;11.08;100.00;100560.34;5029421;28;20621;-70
2023/05/06 04:53:46;;;;;;;5.90;3.77;;;;;;;11.36;100.00;100561.59;5044168;28;21404;-71
2023/05/06 04:56:13;;;;;;;6.23;3.83;;;;;;;11.60;100.00;100561.88;5044321;28;20676;-70
2023/05/06 04:58:39;;;;;;;5.80;4.07;;;;;;;11.80;100.00;100563.94;5041172;28;20740;-70
2023/05/06 05:01:07;;;;;;;4.20;3.10;;;;;;;11.99;100.00;100568.53;5025840;28;20195;-70
2023/05/06 05:03:34;;;;;;;3.37;3.07;;;;;;;12.28;100.00;100575.91;5041507;28;20737;-70
2023/05/06 05:06:00;;;;;;;3.80;3.23;;;;;;;12.40;100.00;100568.06;5041823;28;20670;-70
2023/05/06 05:08:27;;;;;;;4.10;2.80;;;;;;;12.54;100.00;100567.31;5023833;28;20199;-70
2023/05/06 05:10:53;;;;;;;4.23;3.00;;;;;;;12.55;100.00;100569.09;5023479;28;20272;-70
2023/05/06 05:13:20;;;;;;;4.90;2.80;;;;;;;12.52;100.00;100577.03;5037862;28;21051;-70
2023/05/06 05:15:46;;;;;;;4.30;2.90;;;;;;;12.45;100.00;100583.19;5039533;28;20681;-71
2023/05/06 05:18:13;;;;;;;4.90;2.57;;;;;;;12.37;100.00;100587.50;5050012;28;20592;-71
2023/05/06 05:20:39;;;;;;;3.77;2.80;;;;;;;12.19;100.00;100590.00;5029458;28;20205;-71
2023/05/06 05:23:06;;;;;;;4.27;2.87;;;;;;;12.19;100.00;100579.38;5033921;28;20266;-71
2023/05/06 05:25:32;;;;;;;6.47;3.73;;;;;;;12.15;100.00;100589.09;5040079;28;20225;-70
2023/05/06 05:27:58;;;;;;;4.30;3.03;;;;;;;12.12;100.00;100597.03;5044717;28;20210;-70
2023/05/06 05:30:25;;;;;;;4.97;3.20;;;;;;;12.22;100.00;100598.00;5051034;28;20236;-70
2023/05/06 05:32:51;;;;;;;3.63;2.93;;;;;;;12.40;100.00;100598.16;5044845;28;20260;-71
2023/05/06 05:35:18;;;;;;;7.87;3.10;;;;;;;12.47;100.00;100594.72;5044964;28;20265;-70
2023/05/06 05:37:44;;;;;;;3.33;2.83;;;;;;;12.83;100.00;100595.91;5044407;28;20194;-70
2023/05/06 05:40:11;;;;;;;4.87;3.03;;;;;;;13.52;100.00;100588.34;5045300;28;20226;-70
2023/05/06 05:42:39;;;;;;;3.37;2.50;;;;;;;13.63;100.00;100587.53;5050306;28;20640;-70
2023/05/06 05:45:06;;;;;;;6.27;2.70;;;;;;;14.71;99.26;100589.53;5029562;28;20583;-70
2023/05/06 05:47:33;;;;;;;4.33;2.70;;;;;;;15.35;94.70;100589.47;5046230;28;20451;-71
2023/05/06 05:49:59;;;;;;;4.83;2.60;;;;;;;15.11;93.25;100587.72;5044901;28;20203;-73
2023/05/06 05:52:26;;;;;;;5.20;2.10;;;;;;;14.30;94.96;100589.47;5030737;28;20226;-74
2023/05/06 05:54:52;;;;;;;4.13;2.90;;;;;;;13.95;97.51;100590.28;5039830;28;20257;-77
2023/05/06 05:57:18;;;;;;;3.53;2.47;;;;;;;13.85;98.25;100592.94;5032525;28;20221;-73
2023/05/06 05:59:45;;;;;;;2.73;2.10;;;;;;;13.80;99.16;100592.91;5041176;28;20234;-77
2023/05/06 06:02:11;;;;;;;4.20;2.20;;;;;;;13.54;99.38;100586.59;5049885;28;20740;-74
2023/05/06 06:04:37;;;;;;;3.10;2.40;;;;;;;13.46;100.00;100587.44;5045234;28;20693;-75
2023/05/06 06:07:04;;;;;;;2.50;2.30;;;;;;;13.47;100.00;100591.00;5052791;28;20198;-75
2023/05/06 06:09:31;;;;;;;4.17;2.10;;;;;;;13.51;100.00;100581.25;5030848;28;20205;-74
2023/05/06 06:11:57;;;;;;;3.50;1.90;;;;;;;13.73;100.00;100583.13;5050696;28;20290;-77
2023/05/06 06:14:24;;;;;;;2.50;1.93;;;;;;;13.93;98.73;100580.53;5043596;28;20214;-78
2023/05/06 06:16:50;;;;;;;4.83;2.10;;;;;;;14.33;96.31;100581.50;5033014;28;20644;-80
2023/05/06 06:19:17;;;;;;;2.80;1.97;;;;;;;14.73;95.24;100577.97;5048633;28;20569;-79
2023/05/06 06:21:43;;;;;;;5.33;1.90;;;;;;;15.25;93.13;100582.38;5040607;28;20214;-78
2023/05/06 06:24:09;;;;;;;5.53;2.40;;;;;;;15.65;89.97;100584.06;5028566;28;20212;-73
2023/05/06 06:26:36;;;;;;;2.10;1.80;;;;;;;16.05;87.34;100588.31;5029174;28;20198;-73
2023/05/06 06:29:02;;;;;;;3.47;1.90;;;;;;;16.42;84.85;100589.84;5048812;28;20199;-72
2023/05/06 06:31:28;;;;;;;5.40;1.80;;;;;;;16.66;83.57;100587.91;5038370;28;20215;-73
2023/05/06 06:33:55;;;;;;;3.83;1.80;;;;;;;16.83;81.67;100599.34;5043898;28;20310;-72
2023/05/06 06:36:21;;;;;;;4.67;2.10;;;;;;;16.97;81.42;100584.06;5042398;28;20613;-70
2023/05/06 06:38:47;;;;;;;3.10;1.93;;;;;;;17.36;80.16;100588.13;5047011;28;20609;-71
2023/05/06 06:41:14;;;;;;;3.93;2.10;;;;;;;17.50;79.27;100591.50;5043744;28;20231;-70
2023/05/06 06:43:40;;;;;;;3.47;2.57;;;;;;;17.54;77.01;100595.03;5041587;28;20230;-70
2023/05/06 06:46:06;;;;;;;2.93;1.90;;;;;;;17.27;78.65;100603.41;5042165;28;20200;-71
2023/05/06 06:48:33;;;;;;;3.17;2.00;;;;;;;16.79;79.55;100609.16;5045648;28;20226;-71
2023/05/06 06:50:59;;;;;;;4.30;2.07;;;;;;;16.37;82.05;100606.78;5042810;28;20227;-70
2023/05/06 06:53:26;;;;;;;2.57;1.77;;;;;;;16.00;83.54;100601.66;5039194;28;20761;-71
2023/05/06 06:55:52;;;;;;;2.50;1.83;;;;;;;15.84;84.14;100605.31;5038991;28;20304;-71
2023/05/06 06:58:18;;;;;;;2.97;1.60;;;;;;;16.09;84.19;100606.97;5039491;28;20198;-73
2023/05/06 07:00:45;;;;;;;2.80;1.83;;;;;;;16.36;83.33;100608.56;5046490;28;20224;-73
2023/05/06 07:03:14;;;;;;;3.37;1.70;;;;;;;18.76;74.96;100594.25;5042661;28;20198;-72
2023/05/06 07:05:40;;;;;;;3.57;1.50;;;;;;;21.34;64.10;100594.00;5043203;28;20199;-71
2023/05/06 07:08:07;;;;;;;2.00;1.70;;;;;;;22.68;57.57;100606.16;5020715;28;20203;-71
2023/05/06 07:10:34;;;;;;;2.33;1.50;;;;;;;23.27;55.69;100607.81;5042511;28;20199;-71
2023/05/06 07:13:01;;;;;;;3.13;1.33;;;;;;;22.96;56.41;100607.97;5038821;28;20221;-70
2023/05/06 07:15:27;;;;;;;2.33;1.30;;;;;;;22.50;56.21;100612.16;5041847;28;20200;-71
2023/05/06 07:17:53;;;;;;;2.07;1.33;;;;;;;20.80;61.14;100616.03;5041841;28;20230;-71
2023/05/06 07:20:20;;;;;;;2.63;1.57;;;;;;;20.12;65.07;100617.63;5042169;28;20226;-71
2023/05/06 07:22:46;;;;;;;2.60;1.60;;;;;;;20.29;64.43;100620.81;5041902;28;20637;-71
2023/05/06 07:25:13;;;;;;;3.60;1.30;;;;;;;19.40;66.75;100621.75;5039666;28;20219;-71
2023/05/06 07:27:39;;;;;;;3.40;1.73;;;;;;;19.34;67.96;100614.69;5039817;28;20249;-71
2023/05/06 07:30:07;;;;;;;2.80;1.60;;;;;;;19.36;68.09;100620.94;5030055;28;20191;-71
2023/05/06 07:32:33;;;;;;;2.47;1.60;;;;;;;19.69;66.97;100614.03;5020861;28;20467;-71
2023/05/06 07:35:00;;;;;;;4.87;2.90;;;;;;;21.06;62.72;100617.19;5038451;28;20226;-71
2023/05/06 07:37:26;;;;;;;3.80;2.30;;;;;;;22.13;58.75;100617.81;5042334;28;20195;-71
2023/05/06 07:39:53;;;;;;;4.33;1.90;;;;;;;23.28;56.31;100618.56;5045330;28;20199;-71
2023/05/06 07:42:19;;;;;;;4.53;2.00;;;;;;;23.68;54.25;100619.88;5041611;28;20245;-71
2023/05/06 07:44:45;;;;;;;4.67;2.17;;;;;;;23.86;51.11;100618.28;5049458;28;20249;-71
2023/05/06 07:47:24;;;;;;;5.17;2.00;;;;;;;24.16;48.20;100627.06;5044431;28;20401;-71
2023/05/06 07:49:51;;;;;;;3.07;1.70;;;;;;;23.50;48.92;100617.78;5042051;28;20677;-71
2023/05/06 07:52:17;;;;;;;2.93;1.40;;;;;;;23.70;49.09;100618.88;5041884;28;20726;-71
2023/05/06 07:54:43;;;;;;;2.23;1.37;;;;;;;24.43;47.16;100614.31;5038759;28;20603;-71
2023/05/06 07:57:10;;;;;;;2.60;1.20;;;;;;;25.31;44.91;100610.63;5039698;28;20231;-69
2023/05/06 07:59:36;;;;;;;2.30;1.30;;;;;;;25.70;43.10;100615.25;5042369;28;20191;-71
2023/05/06 08:02:02;;;;;;;2.10;1.20;;;;;;;25.59;42.99;100621.09;5038149;28;20206;-71
2023/05/06 08:04:29;;;;;;;1.50;0.90;;;;;;;25.85;42.31;100622.66;5037527;28;20353;-71
2023/05/06 08:06:56;;;;;;;2.42;1.00;;;;;;;25.01;43.39;100618.22;5039449;28;20612;-71
2023/05/06 08:09:22;;;;;;;2.85;1.38;;;;;;;24.12;44.86;100620.88;5029326;28;20285;-71
2023/05/06 08:11:49;;;;;;;3.75;1.17;;;;;;;23.01;47.75;100617.69;5038608;28;20310;-71
2023/05/06 08:14:15;;;;;;;1.80;1.30;;;;;;;22.37;50.03;100621.56;5040474;28;20251;-71
2023/05/06 08:16:42;;;;;;;1.88;1.20;;;;;;;22.36;50.77;100625.19;5049612;28;20235;-71
2023/05/06 08:19:08;;;;;;;3.75;1.02;;;;;;;22.45;50.03;100623.13;5041863;28;20299;-71
2023/05/06 08:21:35;;;;;;;2.47;1.40;;;;;;;22.62;49.84;100624.38;5047219;28;20191;-71
2023/05/06 08:24:01;;;;;;;1.33;1.20;;;;;;;22.47;50.49;100623.94;5036626;28;20244;-71
2023/05/06 08:26:27;;;;;;;3.30;1.30;;;;;;;22.51;50.00;100620.22;5044922;28;20298;-71
2023/05/06 08:28:55;;;;;;;1.33;1.15;;;;;;;22.66;48.95;100621.53;5037490;28;20250;-71
2023/05/06 08:31:21;;;;;;;1.50;1.17;;;;;;;22.50;49.88;100621.16;5043376;28;20926;-71
2023/05/06 08:33:47;;;;;;;251.40;26.90;;;;;;;22.67;50.76;100622.41;5037193;28;20237;-71
2023/05/06 08:36:14;;;;;;;16.83;3.80;;;;;;;22.69;49.65;100623.25;5037930;28;20195;-74
2023/05/06 08:38:40;;;;;;;2.90;1.35;;;;;;;22.63;50.04;100626.13;5045139;28;20241;-73
2023/05/06 08:41:10;;;;;;;4.10;1.20;;;;;;;22.87;50.94;100621.81;5044800;28;20253;-74
2023/05/06 08:43:42;;;;;;;2.65;1.33;;;;;;;23.23;49.98;100617.84;5044267;28;20276;-74
2023/05/06 08:46:08;;;;;;;2.30;1.38;;;;;;;23.45;49.04;100623.34;5046170;28;20205;-73
2023/05/06 08:48:36;;;;;;;14.05;2.70;;;;;;;23.64;48.40;100613.69;5045773;28;20203;-73
2023/05/06 08:51:03;;;;;;;3.78;1.92;;;;;;;23.72;49.13;100621.50;5044815;28;20666;-72
2023/05/06 08:53:32;;;;;;;11.15;2.63;;;;;;;23.93;47.47;100625.22;5043716;28;20667;-73
2023/05/06 08:56:07;;;;;;;5.75;1.63;;;;;;;23.51;48.81;100625.84;5045077;28;20206;-73
2023/05/06 08:58:36;;;;;;;3.45;1.58;;;;;;;23.60;48.36;100625.53;5043431;28;20256;-73
2023/05/06 09:01:03;;;;;;;3.60;1.65;;;;;;;23.29;48.33;100616.75;5040604;28;20234;-73
2023/05/06 09:03:30;;;;;;;3.97;1.75;;;;;;;23.38;48.54;100622.69;5034711;28;20722;-73
2023/05/06 09:05:57;;;;;;;1.55;1.30;;;;;;;23.21;48.62;100614.28;5037266;28;20790;-73
2023/05/06 09:08:23;;;;;;;8.35;2.08;;;;;;;23.23;48.84;100622.38;5017919;28;20202;-72
2023/05/06 09:10:50;;;;;;;2.03;1.27;;;;;;;23.24;48.89;100616.91;5037804;28;20195;-72
2023/05/06 09:13:18;;;;;;;2.80;1.25;;;;;;;23.41;48.59;100613.59;5039256;28;20231;-73
2023/05/06 09:15:46;;;;;;;4.38;2.05;;;;;;;23.67;48.49;100612.69;5040485;28;20206;-72
2023/05/06 09:18:14;;;;;;;2.80;1.90;;;;;;;23.59;49.30;100610.25;5044587;28;20283;-72
2023/05/06 09:20:43;;;;;;;4.43;1.70;;;;;;;23.66;49.65;100610.94;5043767;28;20330;-72
2023/05/06 09:23:15;;;;;;;3.35;1.77;;;;;;;23.44;47.99;100608.06;5035333;28;20648;-72
2023/05/06 09:25:43;;;;;;;2.42;1.70;;;;;;;23.60;48.51;100603.00;5034639;28;20679;-72
2023/05/06 09:28:11;;;;;;;5.03;1.55;;;;;;;23.84;48.05;100601.22;5017105;28;20211;-72
2023/05/06 09:30:42;;;;;;;4.78;1.67;;;;;;;23.79;48.69;100605.94;5035564;28;20203;-72
2023/05/06 09:33:09;;;;;;;3.90;1.40;;;;;;;23.94;47.11;100600.81;5036056;28;20257;-72
2023/05/06 09:35:41;;;;;;;2.20;1.50;;;;;;;23.64;46.98;100596.59;5044682;28;20205;-72
2023/05/06 09:38:08;;;;;;;1.73;1.17;;;;;;;23.68;46.98;100595.53;5042939;28;20647;-73
2023/05/06 09:40:37;;;;;;;1.35;1.25;;;;;;;23.84;46.96;100604.81;5044876;28;20249;-72
2023/05/06 09:43:05;;;;;;;2.13;1.50;;;;;;;23.92;46.48;100599.09;5041485;28;20678;-72
2023/05/06 09:45:31;;;;;;;2.20;1.25;;;;;;;23.91;45.67;100592.81;5044384;28;20226;-73
2023/05/06 09:47:59;;;;;;;2.63;1.30;;;;;;;24.01;46.07;100599.63;5038463;28;20201;-72
2023/05/06 09:50:26;;;;;;;3.65;1.60;;;;;;;24.26;44.32;100590.56;5027072;28;20207;-73
2023/05/06 09:52:54;;;;;;;6.43;1.20;;;;;;;24.17;44.57;100594.53;5038769;28;20238;-72
2023/05/06 09:55:21;;;;;;;4.15;1.58;;;;;;;24.05;44.13;100592.31;5044053;28;20227;-73
2023/05/06 09:57:48;;;;;;;1.27;1.15;;;;;;;23.91;44.47;100590.13;5048143;28;20281;-73
2023/05/06 10:00:16;;;;;;;1.40;1.17;;;;;;;23.75;44.77;100589.81;5048545;28;20679;-73
2023/05/06 10:02:44;;;;;;;1.83;1.10;;;;;;;23.68;44.26;100588.28;5053147;28;20195;-73
2023/05/06 10:05:11;;;;;;;1.45;1.20;;;;;;;23.50;44.95;100586.22;5043975;28;20219;-74
2023/05/06 10:07:40;;;;;;;3.53;1.63;;;;;;;23.55;46.07;100581.56;5042299;28;20191;-73
2023/05/06 10:10:10;;;;;;;23.35;3.00;;;;;;;23.63;46.04;100584.00;5046232;28;20195;-74
2023/05/06 10:12:36;;;;;;;10.38;1.85;;;;;;;23.78;45.86;100583.41;5046842;28;20210;-74
2023/05/06 10:15:04;;;;;;;4.93;1.90;;;;;;;23.72;46.01;100584.53;5055013;28;20484;-73
2023/05/06 10:17:31;;;;;;;6.43;1.30;;;;;;;23.85;44.80;100586.75;5048886;28;20198;-73
2023/05/06 10:20:00;;;;;;;5.88;1.42;;;;;;;24.09;44.54;100582.25;5048428;28;20710;-74
2023/05/06 10:22:50;;;;;;;6.07;1.10;;;;;;;24.55;41.55;100578.59;5040382;28;20279;-73
2023/05/06 10:25:23;;;;;;;1.08;0.60;;;;;;;24.78;40.88;100572.22;5041773;28;20222;-71
2023/05/06 10:27:50;;;;;;;15.77;1.77;;;;;;;25.06;42.45;100563.81;5047823;28;20195;-70
2023/05/06 10:30:18;;;;;;;2.22;1.00;;;;;;;25.33;40.51;100559.91;5047873;28;20199;-69
2023/05/06 10:32:45;;;;;;;1.85;0.80;;;;;;;25.57;40.08;100557.91;5045406;28;20302;-69
2023/05/06 10:35:25;;;;;;;7.03;1.27;;;;;;;25.45;40.97;100555.75;5071483;23;20241;-68
2023/05/06 10:37:53;;;;;;;17.15;2.72;;;;;;;25.17;41.05;100551.56;5050818;28;20294;-67
2023/05/06 10:40:19;;;;;;;6.25;1.20;;;;;;;25.24;40.80;100552.19;5064313;28;20238;-66
2023/05/06 10:42:46;;;;;;;0.70;0.70;;;;;;;25.55;40.64;100544.41;5051305;28;20198;-69
2023/05/06 10:45:14;;;;;;;6.75;0.75;;;;;;;25.78;39.94;100551.53;5063689;28;20218;-69
2023/05/06 10:47:56;;;;;;;1.60;0.80;;;;;;;25.91;39.22;100549.09;5044258;28;20198;-67
2023/05/06 10:50:26;;;;;;;2.67;0.90;;;;;;;25.84;38.34;100547.66;5045921;28;20209;-69
2023/05/06 10:52:55;;;;;;;0.93;0.82;;;;;;;25.76;38.33;100534.44;5042046;28;20226;-67
2023/05/06 10:55:34;;;;;;;1.42;0.70;;;;;;;25.68;38.92;100539.34;5056652;28;20272;-68
2023/05/06 10:58:09;;;;;;;1.30;0.90;;;;;;;25.61;39.55;100541.41;5058621;28;20194;-70
2023/05/06 11:00:36;;;;;;;3.70;0.80;;;;;;;25.50;39.30;100542.84;5047647;28;20268;-68
2023/05/06 11:03:08;;;;;;;1.98;0.90;;;;;;;25.34;38.76;100534.56;5059416;28;20281;-69
2023/05/06 11:05:50;;;;;;;1.52;0.80;;;;;;;25.46;39.20;100533.09;5058484;28;20816;-68
2023/05/06 11:08:24;;;;;;;0.70;0.70;;;;;;;25.49;39.17;100530.25;5057254;28;20529;-65
2023/05/06 11:10:52;;;;;;;1.88;0.90;;;;;;;25.60;39.67;100536.94;5051178;28;20429;-69
2023/05/06 11:13:20;;;;;;;0.70;0.70;;;;;;;25.72;39.31;100526.53;5048951;28;20242;-68
2023/05/06 11:15:49;;;;;;;0.93;0.88;;;;;;;25.66;39.49;100519.56;5055794;28;20234;-68
2023/05/06 11:18:35;;;;;;;2.80;0.80;;;;;;;25.95;37.82;100523.59;5040662;28;20642;-71
2023/05/06 11:21:02;;;;;;;1.10;0.80;;;;;;;26.20;37.77;100521.44;5048884;28;20190;-68
2023/05/06 11:23:41;;;;;;;3.60;0.70;;;;;;;26.26;37.47;100522.09;5050039;28;20214;-68